sensor_id;sensor_type;location;lat;lon;timestamp;P1;durP1;ratioP1;P2;durP2;ratioP2
3849;SDS011;1940;51.052;13.678;2023-03-01T00:01:10;36.10;;;15.53;;
3849;SDS011;1940;51.052;13.678;2023-03-01T00:03:38;36.67;;;16.03;;
3849;SDS011;1940;51.052;13.678;2023-03-01T00:06:04;30.83;;;15.60;;
3849;SDS011;1940;51.052;13.678;2023-03-01T00:08:30;34.90;;;16.37;;
3849;SDS011;1940;51.052;13.678;2023-03-01T00:11:01;29.70;;;14.77;;
3849;SDS011;1940;51.052;13.678;2023-03-01T00:13:31;32.50;;;15.90;;
3849;SDS011;1940;51.052;13.678;2023-03-01T00:15:57;35.60;;;16.37;;
3849;SDS011;1940;51.052;13.678;2023-03-01T00:18:22;36.20;;;16.30;;
3849;SDS011;1940;51.052;13.678;2023-03-01T00:20:52;37.70;;;17.07;;
3849;SDS011;1940;51.052;13.678;2023-03-01T00:23:18;35.10;;;16.70;;
3849;SDS011;1940;51.052;13.678;2023-03-01T00:25:45;31.20;;;15.20;;
3849;SDS011;1940;51.052;13.678;2023-03-01T00:28:10;33.60;;;15.03;;
3849;SDS011;1940;51.052;13.678;2023-03-01T00:30:36;30.40;;;14.23;;
3849;SDS011;1940;51.052;13.678;2023-03-01T00:33:02;33.00;;;15.00;;
3849;SDS011;1940;51.052;13.678;2023-03-01T00:35:27;31.30;;;14.73;;
3849;SDS011;1940;51.052;13.678;2023-03-01T00:37:53;35.10;;;14.23;;
3849;SDS011;1940;51.052;13.678;2023-03-01T00:40:25;33.90;;;15.20;;
3849;SDS011;1940;51.052;13.678;2023-03-01T00:42:52;32.80;;;14.90;;
3849;SDS011;1940;51.052;13.678;2023-03-01T00:45:18;31.03;;;14.27;;
3849;SDS011;1940;51.052;13.678;2023-03-01T00:47:44;35.20;;;15.67;;
3849;SDS011;1940;51.052;13.678;2023-03-01T00:50:10;37.90;;;13.87;;
3849;SDS011;1940;51.052;13.678;2023-03-01T00:52:36;35.10;;;15.40;;
3849;SDS011;1940;51.052;13.678;2023-03-01T00:55:01;32.80;;;15.80;;
3849;SDS011;1940;51.052;13.678;2023-03-01T00:57:27;34.60;;;14.50;;
3849;SDS011;1940;51.052;13.678;2023-03-01T00:59:53;32.80;;;15.40;;
3849;SDS011;1940;51.052;13.678;2023-03-01T01:02:18;32.80;;;14.80;;
3849;SDS011;1940;51.052;13.678;2023-03-01T01:04:45;36.43;;;15.17;;
3849;SDS011;1940;51.052;13.678;2023-03-01T01:07:10;27.97;;;13.90;;
3849;SDS011;1940;51.052;13.678;2023-03-01T01:09:36;32.70;;;15.30;;
3849;SDS011;1940;51.052;13.678;2023-03-01T01:12:02;30.00;;;14.70;;
3849;SDS011;1940;51.052;13.678;2023-03-01T01:14:28;34.80;;;15.00;;
3849;SDS011;1940;51.052;13.678;2023-03-01T01:16:54;30.90;;;15.10;;
3849;SDS011;1940;51.052;13.678;2023-03-01T01:19:19;28.00;;;14.20;;
3849;SDS011;1940;51.052;13.678;2023-03-01T01:21:46;30.33;;;14.07;;
3849;SDS011;1940;51.052;13.678;2023-03-01T01:24:12;36.50;;;15.53;;
3849;SDS011;1940;51.052;13.678;2023-03-01T01:26:38;32.03;;;15.10;;
3849;SDS011;1940;51.052;13.678;2023-03-01T01:29:04;29.83;;;14.30;;
3849;SDS011;1940;51.052;13.678;2023-03-01T01:31:30;34.00;;;14.63;;
3849;SDS011;1940;51.052;13.678;2023-03-01T01:33:58;30.40;;;14.93;;
3849;SDS011;1940;51.052;13.678;2023-03-01T01:36:25;31.33;;;14.27;;
3849;SDS011;1940;51.052;13.678;2023-03-01T01:38:50;31.57;;;15.00;;
3849;SDS011;1940;51.052;13.678;2023-03-01T01:41:16;34.40;;;14.97;;
3849;SDS011;1940;51.052;13.678;2023-03-01T01:43:44;31.77;;;15.30;;
3849;SDS011;1940;51.052;13.678;2023-03-01T01:46:30;29.50;;;13.50;;
3849;SDS011;1940;51.052;13.678;2023-03-01T01:49:00;27.37;;;13.80;;
3849;SDS011;1940;51.052;13.678;2023-03-01T01:51:42;29.77;;;14.20;;
3849;SDS011;1940;51.052;13.678;2023-03-01T01:54:14;33.93;;;14.80;;
3849;SDS011;1940;51.052;13.678;2023-03-01T01:56:44;37.97;;;15.33;;
3849;SDS011;1940;51.052;13.678;2023-03-01T01:59:15;37.07;;;15.67;;
3849;SDS011;1940;51.052;13.678;2023-03-01T02:01:41;33.67;;;14.17;;
3849;SDS011;1940;51.052;13.678;2023-03-01T02:04:07;34.47;;;15.73;;
3849;SDS011;1940;51.052;13.678;2023-03-01T02:06:37;29.03;;;15.07;;
3849;SDS011;1940;51.052;13.678;2023-03-01T02:09:08;28.63;;;13.63;;
3849;SDS011;1940;51.052;13.678;2023-03-01T02:11:40;36.13;;;16.03;;
3849;SDS011;1940;51.052;13.678;2023-03-01T02:14:06;31.83;;;14.60;;
3849;SDS011;1940;51.052;13.678;2023-03-01T02:16:32;30.93;;;14.67;;
3849;SDS011;1940;51.052;13.678;2023-03-01T02:18:57;29.13;;;14.37;;
3849;SDS011;1940;51.052;13.678;2023-03-01T02:21:44;32.43;;;15.70;;
3849;SDS011;1940;51.052;13.678;2023-03-01T02:26:55;34.23;;;15.50;;
3849;SDS011;1940;51.052;13.678;2023-03-01T02:29:22;27.70;;;14.37;;
3849;SDS011;1940;51.052;13.678;2023-03-01T02:31:49;26.90;;;13.30;;
3849;SDS011;1940;51.052;13.678;2023-03-01T02:34:17;43.40;;;15.20;;
3849;SDS011;1940;51.052;13.678;2023-03-01T02:36:46;33.53;;;15.20;;
3849;SDS011;1940;51.052;13.678;2023-03-01T02:39:14;29.83;;;14.33;;
3849;SDS011;1940;51.052;13.678;2023-03-01T02:41:51;37.27;;;15.10;;
3849;SDS011;1940;51.052;13.678;2023-03-01T02:44:19;31.27;;;14.57;;
3849;SDS011;1940;51.052;13.678;2023-03-01T02:46:52;29.57;;;13.90;;
3849;SDS011;1940;51.052;13.678;2023-03-01T02:49:28;30.23;;;13.93;;
3849;SDS011;1940;51.052;13.678;2023-03-01T02:52:00;33.83;;;14.50;;
3849;SDS011;1940;51.052;13.678;2023-03-01T02:54:58;34.40;;;15.07;;
3849;SDS011;1940;51.052;13.678;2023-03-01T02:57:29;33.17;;;15.13;;
3849;SDS011;1940;51.052;13.678;2023-03-01T02:59:57;29.70;;;14.60;;
3849;SDS011;1940;51.052;13.678;2023-03-01T03:02:27;29.40;;;13.73;;
3849;SDS011;1940;51.052;13.678;2023-03-01T03:05:09;34.43;;;14.70;;
3849;SDS011;1940;51.052;13.678;2023-03-01T03:07:43;30.63;;;14.00;;
3849;SDS011;1940;51.052;13.678;2023-03-01T03:10:12;28.47;;;13.50;;
3849;SDS011;1940;51.052;13.678;2023-03-01T03:12:39;31.37;;;14.20;;
3849;SDS011;1940;51.052;13.678;2023-03-01T03:15:06;33.60;;;15.10;;
3849;SDS011;1940;51.052;13.678;2023-03-01T03:17:36;28.77;;;13.80;;
3849;SDS011;1940;51.052;13.678;2023-03-01T03:20:03;38.40;;;15.70;;
3849;SDS011;1940;51.052;13.678;2023-03-01T03:22:31;37.40;;;15.10;;
3849;SDS011;1940;51.052;13.678;2023-03-01T03:24:58;31.77;;;15.13;;
3849;SDS011;1940;51.052;13.678;2023-03-01T03:27:24;29.30;;;15.00;;
3849;SDS011;1940;51.052;13.678;2023-03-01T03:29:49;31.93;;;15.57;;
3849;SDS011;1940;51.052;13.678;2023-03-01T03:32:15;33.57;;;14.17;;
3849;SDS011;1940;51.052;13.678;2023-03-01T03:34:40;30.53;;;13.30;;
3849;SDS011;1940;51.052;13.678;2023-03-01T03:37:06;33.93;;;15.37;;
3849;SDS011;1940;51.052;13.678;2023-03-01T03:39:51;28.47;;;14.50;;
3849;SDS011;1940;51.052;13.678;2023-03-01T03:42:19;30.73;;;15.03;;
3849;SDS011;1940;51.052;13.678;2023-03-01T03:44:46;33.40;;;14.63;;
3849;SDS011;1940;51.052;13.678;2023-03-01T03:47:11;28.43;;;14.13;;
3849;SDS011;1940;51.052;13.678;2023-03-01T03:49:37;39.83;;;14.77;;
3849;SDS011;1940;51.052;13.678;2023-03-01T03:52:02;32.27;;;13.90;;
3849;SDS011;1940;51.052;13.678;2023-03-01T03:54:28;34.20;;;15.30;;
3849;SDS011;1940;51.052;13.678;2023-03-01T03:56:53;35.50;;;14.40;;
3849;SDS011;1940;51.052;13.678;2023-03-01T03:59:19;45.20;;;15.70;;
3849;SDS011;1940;51.052;13.678;2023-03-01T04:01:44;29.40;;;14.87;;
3849;SDS011;1940;51.052;13.678;2023-03-01T04:04:10;31.90;;;14.67;;
3849;SDS011;1940;51.052;13.678;2023-03-01T04:06:35;29.60;;;14.23;;
3849;SDS011;1940;51.052;13.678;2023-03-01T04:09:01;26.97;;;14.50;;
3849;SDS011;1940;51.052;13.678;2023-03-01T04:11:27;31.57;;;14.70;;
3849;SDS011;1940;51.052;13.678;2023-03-01T04:13:54;29.00;;;14.57;;
3849;SDS011;1940;51.052;13.678;2023-03-01T04:16:21;35.83;;;15.30;;
3849;SDS011;1940;51.052;13.678;2023-03-01T04:18:47;29.70;;;14.40;;
3849;SDS011;1940;51.052;13.678;2023-03-01T04:21:13;32.97;;;16.73;;
3849;SDS011;1940;51.052;13.678;2023-03-01T04:23:39;33.97;;;15.67;;
3849;SDS011;1940;51.052;13.678;2023-03-01T04:26:05;36.43;;;15.90;;
3849;SDS011;1940;51.052;13.678;2023-03-01T04:31:05;30.07;;;15.20;;
3849;SDS011;1940;51.052;13.678;2023-03-01T04:33:50;32.97;;;14.10;;
3849;SDS011;1940;51.052;13.678;2023-03-01T04:36:19;35.77;;;15.70;;
3849;SDS011;1940;51.052;13.678;2023-03-01T04:38:46;37.80;;;14.30;;
3849;SDS011;1940;51.052;13.678;2023-03-01T04:41:18;37.07;;;15.37;;
3849;SDS011;1940;51.052;13.678;2023-03-01T04:43:45;41.63;;;15.40;;
3849;SDS011;1940;51.052;13.678;2023-03-01T04:46:12;32.30;;;14.90;;
3849;SDS011;1940;51.052;13.678;2023-03-01T04:48:39;31.57;;;15.43;;
3849;SDS011;1940;51.052;13.678;2023-03-01T04:51:05;36.27;;;16.40;;
3849;SDS011;1940;51.052;13.678;2023-03-01T04:53:32;35.77;;;16.10;;
3849;SDS011;1940;51.052;13.678;2023-03-01T04:56:01;34.37;;;15.80;;
3849;SDS011;1940;51.052;13.678;2023-03-01T04:58:27;35.73;;;15.60;;
3849;SDS011;1940;51.052;13.678;2023-03-01T05:00:53;35.53;;;14.70;;
3849;SDS011;1940;51.052;13.678;2023-03-01T05:03:19;33.80;;;15.00;;
3849;SDS011;1940;51.052;13.678;2023-03-01T05:05:46;36.77;;;18.00;;
3849;SDS011;1940;51.052;13.678;2023-03-01T05:08:13;34.80;;;16.47;;
3849;SDS011;1940;51.052;13.678;2023-03-01T05:10:46;40.73;;;16.10;;
3849;SDS011;1940;51.052;13.678;2023-03-01T05:13:16;33.70;;;15.50;;
3849;SDS011;1940;51.052;13.678;2023-03-01T05:15:58;27.63;;;13.47;;
3849;SDS011;1940;51.052;13.678;2023-03-01T05:18:25;34.20;;;15.20;;
3849;SDS011;1940;51.052;13.678;2023-03-01T05:20:55;36.43;;;15.63;;
3849;SDS011;1940;51.052;13.678;2023-03-01T05:23:26;29.30;;;13.60;;
3849;SDS011;1940;51.052;13.678;2023-03-01T05:25:52;35.23;;;15.87;;
3849;SDS011;1940;51.052;13.678;2023-03-01T05:28:19;35.33;;;15.33;;
3849;SDS011;1940;51.052;13.678;2023-03-01T05:30:45;32.07;;;15.07;;
3849;SDS011;1940;51.052;13.678;2023-03-01T05:33:11;32.27;;;14.97;;
3849;SDS011;1940;51.052;13.678;2023-03-01T05:35:43;35.87;;;16.40;;
3849;SDS011;1940;51.052;13.678;2023-03-01T05:38:10;37.23;;;16.80;;
3849;SDS011;1940;51.052;13.678;2023-03-01T05:40:38;28.13;;;14.00;;
3849;SDS011;1940;51.052;13.678;2023-03-01T05:43:04;29.77;;;14.60;;
3849;SDS011;1940;51.052;13.678;2023-03-01T05:45:30;28.93;;;14.30;;
3849;SDS011;1940;51.052;13.678;2023-03-01T05:47:57;30.20;;;15.30;;
3849;SDS011;1940;51.052;13.678;2023-03-01T05:50:30;35.67;;;15.30;;
3849;SDS011;1940;51.052;13.678;2023-03-01T05:53:00;33.93;;;16.10;;
3849;SDS011;1940;51.052;13.678;2023-03-01T05:55:28;34.23;;;14.37;;
3849;SDS011;1940;51.052;13.678;2023-03-01T05:57:54;32.53;;;15.37;;
3849;SDS011;1940;51.052;13.678;2023-03-01T06:00:21;38.40;;;16.37;;
3849;SDS011;1940;51.052;13.678;2023-03-01T06:02:47;34.07;;;15.47;;
3849;SDS011;1940;51.052;13.678;2023-03-01T06:05:13;33.03;;;16.00;;
3849;SDS011;1940;51.052;13.678;2023-03-01T06:07:40;33.80;;;16.10;;
3849;SDS011;1940;51.052;13.678;2023-03-01T06:10:06;30.43;;;15.13;;
3849;SDS011;1940;51.052;13.678;2023-03-01T06:12:33;42.40;;;17.10;;
3849;SDS011;1940;51.052;13.678;2023-03-01T06:15:00;45.07;;;17.30;;
3849;SDS011;1940;51.052;13.678;2023-03-01T06:17:31;34.73;;;16.23;;
3849;SDS011;1940;51.052;13.678;2023-03-01T06:19:57;38.80;;;16.27;;
3849;SDS011;1940;51.052;13.678;2023-03-01T06:22:23;39.80;;;17.27;;
3849;SDS011;1940;51.052;13.678;2023-03-01T06:24:49;43.63;;;18.90;;
3849;SDS011;1940;51.052;13.678;2023-03-01T06:27:14;46.27;;;19.47;;
3849;SDS011;1940;51.052;13.678;2023-03-01T06:29:40;46.77;;;18.60;;
3849;SDS011;1940;51.052;13.678;2023-03-01T06:32:06;38.97;;;18.47;;
3849;SDS011;1940;51.052;13.678;2023-03-01T06:34:32;38.60;;;17.00;;
3849;SDS011;1940;51.052;13.678;2023-03-01T06:36:58;39.00;;;17.70;;
3849;SDS011;1940;51.052;13.678;2023-03-01T06:39:24;42.63;;;17.60;;
3849;SDS011;1940;51.052;13.678;2023-03-01T06:41:49;38.03;;;17.67;;
3849;SDS011;1940;51.052;13.678;2023-03-01T06:44:14;43.43;;;17.13;;
3849;SDS011;1940;51.052;13.678;2023-03-01T06:46:40;42.17;;;16.83;;
3849;SDS011;1940;51.052;13.678;2023-03-01T06:49:06;36.97;;;16.77;;
3849;SDS011;1940;51.052;13.678;2023-03-01T06:51:34;44.40;;;17.93;;
3849;SDS011;1940;51.052;13.678;2023-03-01T06:54:01;39.83;;;15.90;;
3849;SDS011;1940;51.052;13.678;2023-03-01T06:56:27;40.07;;;16.77;;
3849;SDS011;1940;51.052;13.678;2023-03-01T06:58:53;39.03;;;16.57;;
3849;SDS011;1940;51.052;13.678;2023-03-01T07:01:18;36.50;;;15.90;;
3849;SDS011;1940;51.052;13.678;2023-03-01T07:03:44;36.87;;;15.13;;
3849;SDS011;1940;51.052;13.678;2023-03-01T07:06:09;33.17;;;15.93;;
3849;SDS011;1940;51.052;13.678;2023-03-01T07:08:35;32.83;;;15.00;;
3849;SDS011;1940;51.052;13.678;2023-03-01T07:11:00;34.30;;;14.33;;
3849;SDS011;1940;51.052;13.678;2023-03-01T07:13:27;35.53;;;15.20;;
3849;SDS011;1940;51.052;13.678;2023-03-01T07:15:53;32.60;;;14.67;;
3849;SDS011;1940;51.052;13.678;2023-03-01T07:18:18;32.37;;;15.53;;
3849;SDS011;1940;51.052;13.678;2023-03-01T07:20:44;34.17;;;15.80;;
3849;SDS011;1940;51.052;13.678;2023-03-01T07:23:09;28.13;;;13.90;;
3849;SDS011;1940;51.052;13.678;2023-03-01T07:25:35;31.80;;;15.47;;
3849;SDS011;1940;51.052;13.678;2023-03-01T07:28:00;29.77;;;14.80;;
3849;SDS011;1940;51.052;13.678;2023-03-01T07:30:26;33.20;;;13.87;;
3849;SDS011;1940;51.052;13.678;2023-03-01T07:32:53;31.90;;;14.60;;
3849;SDS011;1940;51.052;13.678;2023-03-01T07:35:19;30.03;;;14.53;;
3849;SDS011;1940;51.052;13.678;2023-03-01T07:37:44;37.37;;;15.90;;
3849;SDS011;1940;51.052;13.678;2023-03-01T07:40:10;36.73;;;15.67;;
3849;SDS011;1940;51.052;13.678;2023-03-01T07:42:36;36.07;;;15.40;;
3849;SDS011;1940;51.052;13.678;2023-03-01T07:45:02;32.57;;;14.30;;
3849;SDS011;1940;51.052;13.678;2023-03-01T07:47:28;36.23;;;15.57;;
3849;SDS011;1940;51.052;13.678;2023-03-01T07:49:54;40.50;;;15.37;;
3849;SDS011;1940;51.052;13.678;2023-03-01T07:52:19;29.00;;;14.10;;
3849;SDS011;1940;51.052;13.678;2023-03-01T07:54:45;33.80;;;14.77;;
3849;SDS011;1940;51.052;13.678;2023-03-01T07:57:10;31.03;;;14.03;;
3849;SDS011;1940;51.052;13.678;2023-03-01T07:59:36;37.23;;;16.27;;
3849;SDS011;1940;51.052;13.678;2023-03-01T08:02:02;34.20;;;14.73;;
3849;SDS011;1940;51.052;13.678;2023-03-01T08:04:27;29.57;;;15.30;;
3849;SDS011;1940;51.052;13.678;2023-03-01T08:06:53;33.10;;;16.17;;
3849;SDS011;1940;51.052;13.678;2023-03-01T08:09:19;27.97;;;15.90;;
3849;SDS011;1940;51.052;13.678;2023-03-01T08:11:45;36.30;;;17.37;;
3849;SDS011;1940;51.052;13.678;2023-03-01T08:14:11;28.87;;;15.90;;
3849;SDS011;1940;51.052;13.678;2023-03-01T08:16:36;34.50;;;17.40;;
3849;SDS011;1940;51.052;13.678;2023-03-01T08:19:05;35.40;;;17.23;;
3849;SDS011;1940;51.052;13.678;2023-03-01T08:21:32;30.80;;;16.63;;
3849;SDS011;1940;51.052;13.678;2023-03-01T08:23:59;32.43;;;16.90;;
3849;SDS011;1940;51.052;13.678;2023-03-01T08:26:35;36.60;;;16.70;;
3849;SDS011;1940;51.052;13.678;2023-03-01T08:29:01;34.00;;;17.20;;
3849;SDS011;1940;51.052;13.678;2023-03-01T08:31:29;29.70;;;16.77;;
3849;SDS011;1940;51.052;13.678;2023-03-01T08:33:58;32.07;;;17.07;;
3849;SDS011;1940;51.052;13.678;2023-03-01T08:36:26;33.83;;;17.67;;
3849;SDS011;1940;51.052;13.678;2023-03-01T08:38:54;34.50;;;17.40;;
3849;SDS011;1940;51.052;13.678;2023-03-01T08:41:20;29.07;;;17.20;;
3849;SDS011;1940;51.052;13.678;2023-03-01T08:43:45;40.20;;;17.63;;
3849;SDS011;1940;51.052;13.678;2023-03-01T08:46:11;29.70;;;16.43;;
3849;SDS011;1940;51.052;13.678;2023-03-01T08:48:37;38.47;;;17.70;;
3849;SDS011;1940;51.052;13.678;2023-03-01T08:51:07;30.50;;;17.33;;
3849;SDS011;1940;51.052;13.678;2023-03-01T08:53:34;29.33;;;16.60;;
3849;SDS011;1940;51.052;13.678;2023-03-01T08:56:00;34.10;;;17.97;;
3849;SDS011;1940;51.052;13.678;2023-03-01T08:58:27;33.23;;;17.70;;
3849;SDS011;1940;51.052;13.678;2023-03-01T09:00:53;34.33;;;18.70;;
3849;SDS011;1940;51.052;13.678;2023-03-01T09:03:18;32.77;;;18.67;;
3849;SDS011;1940;51.052;13.678;2023-03-01T09:05:44;32.80;;;18.03;;
3849;SDS011;1940;51.052;13.678;2023-03-01T09:08:10;33.50;;;18.37;;
3849;SDS011;1940;51.052;13.678;2023-03-01T09:10:39;32.97;;;18.27;;
3849;SDS011;1940;51.052;13.678;2023-03-01T09:13:05;32.73;;;18.37;;
3849;SDS011;1940;51.052;13.678;2023-03-01T09:15:30;34.60;;;18.93;;
3849;SDS011;1940;51.052;13.678;2023-03-01T09:17:56;32.50;;;18.93;;
3849;SDS011;1940;51.052;13.678;2023-03-01T09:20:21;38.07;;;18.93;;
3849;SDS011;1940;51.052;13.678;2023-03-01T09:22:47;30.73;;;16.60;;
3849;SDS011;1940;51.052;13.678;2023-03-01T09:25:12;34.83;;;19.10;;
3849;SDS011;1940;51.052;13.678;2023-03-01T09:27:38;30.53;;;18.40;;
3849;SDS011;1940;51.052;13.678;2023-03-01T09:30:03;36.63;;;18.83;;
3849;SDS011;1940;51.052;13.678;2023-03-01T09:32:30;34.13;;;18.73;;
3849;SDS011;1940;51.052;13.678;2023-03-01T09:34:56;37.83;;;18.63;;
3849;SDS011;1940;51.052;13.678;2023-03-01T09:37:31;33.50;;;19.10;;
3849;SDS011;1940;51.052;13.678;2023-03-01T09:39:58;28.03;;;17.27;;
3849;SDS011;1940;51.052;13.678;2023-03-01T09:42:24;31.40;;;18.63;;
3849;SDS011;1940;51.052;13.678;2023-03-01T09:47:45;29.33;;;17.30;;
3849;SDS011;1940;51.052;13.678;2023-03-01T09:50:15;32.50;;;18.60;;
3849;SDS011;1940;51.052;13.678;2023-03-01T09:52:50;30.43;;;18.73;;
3849;SDS011;1940;51.052;13.678;2023-03-01T09:55:34;30.97;;;18.33;;
3849;SDS011;1940;51.052;13.678;2023-03-01T10:00:44;33.00;;;18.30;;
3849;SDS011;1940;51.052;13.678;2023-03-01T10:03:23;31.17;;;18.23;;
3849;SDS011;1940;51.052;13.678;2023-03-01T10:06:13;33.83;;;18.00;;
3849;SDS011;1940;51.052;13.678;2023-03-01T10:11:24;34.50;;;18.07;;
3849;SDS011;1940;51.052;13.678;2023-03-01T10:16:48;26.40;;;16.43;;
3849;SDS011;1940;51.052;13.678;2023-03-01T10:19:20;30.30;;;17.50;;
3849;SDS011;1940;51.052;13.678;2023-03-01T10:21:50;27.30;;;15.83;;
3849;SDS011;1940;51.052;13.678;2023-03-01T10:24:17;28.93;;;17.27;;
3849;SDS011;1940;51.052;13.678;2023-03-01T10:26:54;29.00;;;16.30;;
3849;SDS011;1940;51.052;13.678;2023-03-01T10:29:30;33.53;;;18.20;;
3849;SDS011;1940;51.052;13.678;2023-03-01T10:32:08;36.23;;;18.23;;
3849;SDS011;1940;51.052;13.678;2023-03-01T10:34:35;28.00;;;16.13;;
3849;SDS011;1940;51.052;13.678;2023-03-01T10:37:10;30.03;;;16.90;;
3849;SDS011;1940;51.052;13.678;2023-03-01T10:39:53;34.07;;;18.57;;
3849;SDS011;1940;51.052;13.678;2023-03-01T10:42:38;26.20;;;15.30;;
3849;SDS011;1940;51.052;13.678;2023-03-01T10:48:05;26.87;;;16.77;;
3849;SDS011;1940;51.052;13.678;2023-03-01T10:50:38;24.83;;;15.50;;
3849;SDS011;1940;51.052;13.678;2023-03-01T10:53:14;28.53;;;16.77;;
3849;SDS011;1940;51.052;13.678;2023-03-01T10:55:57;28.43;;;16.70;;
3849;SDS011;1940;51.052;13.678;2023-03-01T10:58:35;29.40;;;17.60;;
3849;SDS011;1940;51.052;13.678;2023-03-01T11:01:06;23.90;;;14.90;;
3849;SDS011;1940;51.052;13.678;2023-03-01T11:04:03;38.13;;;16.90;;
3849;SDS011;1940;51.052;13.678;2023-03-01T11:06:32;34.77;;;16.40;;
3849;SDS011;1940;51.052;13.678;2023-03-01T11:09:15;30.13;;;15.93;;
3849;SDS011;1940;51.052;13.678;2023-03-01T11:11:51;25.47;;;15.30;;
3849;SDS011;1940;51.052;13.678;2023-03-01T11:14:21;33.67;;;16.67;;
3849;SDS011;1940;51.052;13.678;2023-03-01T11:16:49;33.70;;;16.23;;
3849;SDS011;1940;51.052;13.678;2023-03-01T11:19:27;24.00;;;14.50;;
3849;SDS011;1940;51.052;13.678;2023-03-01T11:21:55;24.97;;;14.73;;
3849;SDS011;1940;51.052;13.678;2023-03-01T11:24:34;25.23;;;15.33;;
3849;SDS011;1940;51.052;13.678;2023-03-01T11:29:54;25.60;;;14.80;;
3849;SDS011;1940;51.052;13.678;2023-03-01T11:32:28;29.63;;;15.73;;
3849;SDS011;1940;51.052;13.678;2023-03-01T11:35:05;32.70;;;16.23;;
3849;SDS011;1940;51.052;13.678;2023-03-01T11:40:44;23.20;;;13.63;;
3849;SDS011;1940;51.052;13.678;2023-03-01T11:43:19;22.87;;;14.07;;
3849;SDS011;1940;51.052;13.678;2023-03-01T11:46:02;22.83;;;13.10;;
3849;SDS011;1940;51.052;13.678;2023-03-01T12:03:08;21.70;;;11.43;;
3849;SDS011;1940;51.052;13.678;2023-03-01T12:05:47;25.10;;;11.40;;
3849;SDS011;1940;51.052;13.678;2023-03-01T12:11:22;18.63;;;11.07;;
3849;SDS011;1940;51.052;13.678;2023-03-01T12:17:16;19.07;;;10.60;;
3849;SDS011;1940;51.052;13.678;2023-03-01T12:20:02;16.30;;;9.50;;
3849;SDS011;1940;51.052;13.678;2023-03-01T12:25:39;18.17;;;9.60;;
3849;SDS011;1940;51.052;13.678;2023-03-01T12:31:15;18.47;;;9.00;;
3849;SDS011;1940;51.052;13.678;2023-03-01T12:33:47;23.10;;;9.70;;
3849;SDS011;1940;51.052;13.678;2023-03-01T12:36:38;24.00;;;10.03;;
3849;SDS011;1940;51.052;13.678;2023-03-01T12:39:42;17.63;;;9.20;;
3849;SDS011;1940;51.052;13.678;2023-03-01T12:42:41;18.40;;;9.70;;
3849;SDS011;1940;51.052;13.678;2023-03-01T12:51:30;19.10;;;9.43;;
3849;SDS011;1940;51.052;13.678;2023-03-01T12:53:58;23.03;;;10.13;;
3849;SDS011;1940;51.052;13.678;2023-03-01T12:56:31;20.50;;;10.97;;
3849;SDS011;1940;51.052;13.678;2023-03-01T12:59:08;20.37;;;10.30;;
3849;SDS011;1940;51.052;13.678;2023-03-01T13:01:53;23.97;;;12.00;;
3849;SDS011;1940;51.052;13.678;2023-03-01T13:04:28;27.17;;;13.37;;
3849;SDS011;1940;51.052;13.678;2023-03-01T13:07:07;24.67;;;12.20;;
3849;SDS011;1940;51.052;13.678;2023-03-01T13:12:45;22.07;;;11.93;;
3849;SDS011;1940;51.052;13.678;2023-03-01T13:17:49;23.43;;;11.00;;
3849;SDS011;1940;51.052;13.678;2023-03-01T13:20:15;25.27;;;12.23;;
3849;SDS011;1940;51.052;13.678;2023-03-01T13:22:43;26.50;;;12.90;;
3849;SDS011;1940;51.052;13.678;2023-03-01T13:25:13;21.30;;;11.70;;
3849;SDS011;1940;51.052;13.678;2023-03-01T13:27:41;22.77;;;9.80;;
3849;SDS011;1940;51.052;13.678;2023-03-01T13:30:38;19.53;;;11.03;;
3849;SDS011;1940;51.052;13.678;2023-03-01T13:35:58;19.97;;;10.23;;
3849;SDS011;1940;51.052;13.678;2023-03-01T13:41:11;33.50;;;10.83;;
3849;SDS011;1940;51.052;13.678;2023-03-01T13:43:41;24.97;;;10.87;;
3849;SDS011;1940;51.052;13.678;2023-03-01T13:46:15;22.70;;;12.10;;
3849;SDS011;1940;51.052;13.678;2023-03-01T13:48:45;22.23;;;11.37;;
3849;SDS011;1940;51.052;13.678;2023-03-01T13:51:14;20.50;;;10.60;;
3849;SDS011;1940;51.052;13.678;2023-03-01T13:53:42;22.90;;;11.00;;
3849;SDS011;1940;51.052;13.678;2023-03-01T13:58:48;21.20;;;10.40;;
3849;SDS011;1940;51.052;13.678;2023-03-01T14:01:23;20.43;;;9.63;;
3849;SDS011;1940;51.052;13.678;2023-03-01T14:03:49;19.90;;;10.60;;
3849;SDS011;1940;51.052;13.678;2023-03-01T14:06:16;23.20;;;11.00;;
3849;SDS011;1940;51.052;13.678;2023-03-01T14:08:45;22.90;;;11.47;;
3849;SDS011;1940;51.052;13.678;2023-03-01T14:19:39;22.77;;;11.03;;
3849;SDS011;1940;51.052;13.678;2023-03-01T14:22:22;20.43;;;10.70;;
3849;SDS011;1940;51.052;13.678;2023-03-01T14:24:59;20.50;;;10.23;;
3849;SDS011;1940;51.052;13.678;2023-03-01T14:27:35;26.47;;;10.63;;
3849;SDS011;1940;51.052;13.678;2023-03-01T14:30:10;21.80;;;10.93;;
3849;SDS011;1940;51.052;13.678;2023-03-01T14:32:39;21.50;;;11.10;;
3849;SDS011;1940;51.052;13.678;2023-03-01T14:35:19;21.00;;;10.97;;
3849;SDS011;1940;51.052;13.678;2023-03-01T14:37:55;26.30;;;11.27;;
3849;SDS011;1940;51.052;13.678;2023-03-01T14:40:22;22.10;;;10.67;;
3849;SDS011;1940;51.052;13.678;2023-03-01T14:42:49;20.97;;;10.47;;
3849;SDS011;1940;51.052;13.678;2023-03-01T14:45:16;21.30;;;11.30;;
3849;SDS011;1940;51.052;13.678;2023-03-01T14:47:43;21.27;;;10.50;;
3849;SDS011;1940;51.052;13.678;2023-03-01T14:50:15;26.53;;;10.80;;
3849;SDS011;1940;51.052;13.678;2023-03-01T14:52:44;24.80;;;10.63;;
3849;SDS011;1940;51.052;13.678;2023-03-01T14:55:20;21.07;;;10.77;;
3849;SDS011;1940;51.052;13.678;2023-03-01T14:57:50;21.33;;;10.50;;
3849;SDS011;1940;51.052;13.678;2023-03-01T15:00:20;26.70;;;11.53;;
3849;SDS011;1940;51.052;13.678;2023-03-01T15:02:49;19.17;;;9.23;;
3849;SDS011;1940;51.052;13.678;2023-03-01T15:05:25;21.97;;;11.13;;
3849;SDS011;1940;51.052;13.678;2023-03-01T15:07:53;22.43;;;10.73;;
3849;SDS011;1940;51.052;13.678;2023-03-01T15:10:24;24.47;;;10.47;;
3849;SDS011;1940;51.052;13.678;2023-03-01T15:12:51;24.07;;;11.07;;
3849;SDS011;1940;51.052;13.678;2023-03-01T15:15:22;23.03;;;10.77;;
3849;SDS011;1940;51.052;13.678;2023-03-01T15:17:59;29.73;;;11.70;;
3849;SDS011;1940;51.052;13.678;2023-03-01T15:20:28;20.80;;;10.40;;
3849;SDS011;1940;51.052;13.678;2023-03-01T15:22:55;26.40;;;11.50;;
3849;SDS011;1940;51.052;13.678;2023-03-01T15:25:23;19.27;;;10.30;;
3849;SDS011;1940;51.052;13.678;2023-03-01T15:27:52;21.20;;;10.77;;
3849;SDS011;1940;51.052;13.678;2023-03-01T15:30:30;19.17;;;10.50;;
3849;SDS011;1940;51.052;13.678;2023-03-01T15:35:52;23.30;;;10.70;;
3849;SDS011;1940;51.052;13.678;2023-03-01T15:41:19;22.83;;;10.70;;
3849;SDS011;1940;51.052;13.678;2023-03-01T15:43:48;22.33;;;9.97;;
3849;SDS011;1940;51.052;13.678;2023-03-01T15:48:56;23.53;;;10.70;;
3849;SDS011;1940;51.052;13.678;2023-03-01T15:51:42;22.37;;;10.37;;
3849;SDS011;1940;51.052;13.678;2023-03-01T15:54:17;23.27;;;10.47;;
3849;SDS011;1940;51.052;13.678;2023-03-01T15:56:45;17.20;;;9.60;;
3849;SDS011;1940;51.052;13.678;2023-03-01T15:59:11;25.67;;;11.17;;
3849;SDS011;1940;51.052;13.678;2023-03-01T16:01:39;22.47;;;10.37;;
3849;SDS011;1940;51.052;13.678;2023-03-01T16:04:05;22.80;;;10.43;;
3849;SDS011;1940;51.052;13.678;2023-03-01T16:06:30;19.53;;;9.57;;
3849;SDS011;1940;51.052;13.678;2023-03-01T16:08:56;22.30;;;9.40;;
3849;SDS011;1940;51.052;13.678;2023-03-01T16:11:22;18.07;;;9.30;;
3849;SDS011;1940;51.052;13.678;2023-03-01T16:13:47;19.37;;;9.97;;
3849;SDS011;1940;51.052;13.678;2023-03-01T16:16:13;24.73;;;10.23;;
3849;SDS011;1940;51.052;13.678;2023-03-01T16:18:47;19.67;;;9.60;;